sensor_id;sensor_type;location;lat;lon;timestamp;P1;durP1;ratioP1;P2;durP2;ratioP2
16878;SDS011;8556;52.218;9.884;2023-04-03T00:00:20;6.53;;;2.40;;
16878;SDS011;8556;52.218;9.884;2023-04-03T00:02:47;6.67;;;2.30;;
16878;SDS011;8556;52.218;9.884;2023-04-03T00:05:15;5.07;;;1.90;;
16878;SDS011;8556;52.218;9.884;2023-04-03T00:07:42;7.63;;;2.17;;
16878;SDS011;8556;52.218;9.884;2023-04-03T00:10:09;5.20;;;2.30;;
16878;SDS011;8556;52.218;9.884;2023-04-03T00:12:39;8.50;;;2.17;;
16878;SDS011;8556;52.218;9.884;2023-04-03T00:15:06;5.50;;;1.87;;
16878;SDS011;8556;52.218;9.884;2023-04-03T00:17:33;4.77;;;1.97;;
16878;SDS011;8556;52.218;9.884;2023-04-03T00:20:00;5.03;;;1.63;;
16878;SDS011;8556;52.218;9.884;2023-04-03T00:22:28;3.80;;;1.63;;
16878;SDS011;8556;52.218;9.884;2023-04-03T00:24:55;4.73;;;1.90;;
16878;SDS011;8556;52.218;9.884;2023-04-03T00:27:22;1.90;;;1.57;;
16878;SDS011;8556;52.218;9.884;2023-04-03T00:29:49;3.93;;;1.93;;
16878;SDS011;8556;52.218;9.884;2023-04-03T00:32:15;5.40;;;1.80;;
16878;SDS011;8556;52.218;9.884;2023-04-03T00:34:42;5.57;;;2.00;;
16878;SDS011;8556;52.218;9.884;2023-04-03T00:37:09;2.93;;;1.73;;
16878;SDS011;8556;52.218;9.884;2023-04-03T00:39:38;5.10;;;2.00;;
16878;SDS011;8556;52.218;9.884;2023-04-03T00:42:05;5.97;;;1.80;;
16878;SDS011;8556;52.218;9.884;2023-04-03T00:47:36;5.33;;;2.40;;
16878;SDS011;8556;52.218;9.884;2023-04-03T00:50:06;4.23;;;1.67;;
16878;SDS011;8556;52.218;9.884;2023-04-03T00:52:33;2.80;;;1.70;;
16878;SDS011;8556;52.218;9.884;2023-04-03T00:55:03;4.27;;;1.60;;
16878;SDS011;8556;52.218;9.884;2023-04-03T00:57:32;4.77;;;1.83;;
16878;SDS011;8556;52.218;9.884;2023-04-03T01:00:01;4.40;;;1.80;;
16878;SDS011;8556;52.218;9.884;2023-04-03T01:02:32;3.20;;;1.97;;
16878;SDS011;8556;52.218;9.884;2023-04-03T01:04:59;6.17;;;1.90;;
16878;SDS011;8556;52.218;9.884;2023-04-03T01:07:26;3.20;;;2.00;;
16878;SDS011;8556;52.218;9.884;2023-04-03T01:09:56;6.13;;;1.83;;
16878;SDS011;8556;52.218;9.884;2023-04-03T01:12:27;3.40;;;1.87;;
16878;SDS011;8556;52.218;9.884;2023-04-03T01:14:56;2.93;;;1.43;;
16878;SDS011;8556;52.218;9.884;2023-04-03T01:17:28;3.90;;;1.67;;
16878;SDS011;8556;52.218;9.884;2023-04-03T01:20:01;3.00;;;1.70;;
16878;SDS011;8556;52.218;9.884;2023-04-03T01:22:43;4.00;;;1.77;;
16878;SDS011;8556;52.218;9.884;2023-04-03T01:25:15;3.33;;;1.77;;
16878;SDS011;8556;52.218;9.884;2023-04-03T01:27:43;2.70;;;1.60;;
16878;SDS011;8556;52.218;9.884;2023-04-03T01:30:11;4.60;;;2.20;;
16878;SDS011;8556;52.218;9.884;2023-04-03T01:32:43;4.23;;;2.00;;
16878;SDS011;8556;52.218;9.884;2023-04-03T01:35:10;5.73;;;2.17;;
16878;SDS011;8556;52.218;9.884;2023-04-03T01:37:37;4.10;;;2.10;;
16878;SDS011;8556;52.218;9.884;2023-04-03T01:40:04;4.13;;;1.97;;
16878;SDS011;8556;52.218;9.884;2023-04-03T01:42:33;3.00;;;2.00;;
16878;SDS011;8556;52.218;9.884;2023-04-03T01:44:59;4.47;;;1.83;;
16878;SDS011;8556;52.218;9.884;2023-04-03T01:47:26;6.03;;;1.77;;
16878;SDS011;8556;52.218;9.884;2023-04-03T01:49:55;3.57;;;1.90;;
16878;SDS011;8556;52.218;9.884;2023-04-03T01:52:21;6.97;;;2.43;;
16878;SDS011;8556;52.218;9.884;2023-04-03T01:54:48;5.63;;;1.87;;
16878;SDS011;8556;52.218;9.884;2023-04-03T01:57:15;6.50;;;2.27;;
16878;SDS011;8556;52.218;9.884;2023-04-03T01:59:42;3.77;;;2.00;;
16878;SDS011;8556;52.218;9.884;2023-04-03T02:02:09;3.93;;;1.73;;
16878;SDS011;8556;52.218;9.884;2023-04-03T02:04:37;3.40;;;1.90;;
16878;SDS011;8556;52.218;9.884;2023-04-03T02:07:05;2.60;;;1.93;;
16878;SDS011;8556;52.218;9.884;2023-04-03T02:09:32;4.40;;;2.07;;
16878;SDS011;8556;52.218;9.884;2023-04-03T02:11:59;2.70;;;1.60;;
16878;SDS011;8556;52.218;9.884;2023-04-03T02:14:26;6.50;;;2.00;;
16878;SDS011;8556;52.218;9.884;2023-04-03T02:16:53;5.27;;;2.23;;
16878;SDS011;8556;52.218;9.884;2023-04-03T02:19:20;4.07;;;1.63;;
16878;SDS011;8556;52.218;9.884;2023-04-03T02:21:47;5.50;;;2.17;;
16878;SDS011;8556;52.218;9.884;2023-04-03T02:24:15;2.60;;;1.90;;
16878;SDS011;8556;52.218;9.884;2023-04-03T02:26:42;2.93;;;2.00;;
16878;SDS011;8556;52.218;9.884;2023-04-03T02:29:09;6.57;;;1.97;;
16878;SDS011;8556;52.218;9.884;2023-04-03T02:31:36;4.27;;;1.57;;
16878;SDS011;8556;52.218;9.884;2023-04-03T02:34:02;2.00;;;1.50;;
16878;SDS011;8556;52.218;9.884;2023-04-03T02:36:29;6.93;;;1.87;;
16878;SDS011;8556;52.218;9.884;2023-04-03T02:38:56;5.27;;;2.13;;
16878;SDS011;8556;52.218;9.884;2023-04-03T02:41:24;2.73;;;1.37;;
16878;SDS011;8556;52.218;9.884;2023-04-03T02:43:58;5.57;;;2.00;;
16878;SDS011;8556;52.218;9.884;2023-04-03T02:46:25;3.07;;;1.20;;
16878;SDS011;8556;52.218;9.884;2023-04-03T02:48:52;3.83;;;1.97;;
16878;SDS011;8556;52.218;9.884;2023-04-03T02:51:18;2.57;;;1.47;;
16878;SDS011;8556;52.218;9.884;2023-04-03T02:53:45;5.40;;;1.77;;
16878;SDS011;8556;52.218;9.884;2023-04-03T02:56:12;2.07;;;1.23;;
16878;SDS011;8556;52.218;9.884;2023-04-03T02:58:40;3.07;;;1.80;;
16878;SDS011;8556;52.218;9.884;2023-04-03T03:01:07;4.63;;;1.60;;
16878;SDS011;8556;52.218;9.884;2023-04-03T03:03:34;3.40;;;1.80;;
16878;SDS011;8556;52.218;9.884;2023-04-03T03:06:02;3.53;;;1.77;;
16878;SDS011;8556;52.218;9.884;2023-04-03T03:08:29;4.00;;;1.30;;
16878;SDS011;8556;52.218;9.884;2023-04-03T03:10:56;5.50;;;2.17;;
16878;SDS011;8556;52.218;9.884;2023-04-03T03:13:23;4.37;;;1.60;;
16878;SDS011;8556;52.218;9.884;2023-04-03T03:15:52;2.90;;;1.43;;
16878;SDS011;8556;52.218;9.884;2023-04-03T03:18:18;2.67;;;1.57;;
16878;SDS011;8556;52.218;9.884;2023-04-03T03:20:45;3.30;;;1.90;;
16878;SDS011;8556;52.218;9.884;2023-04-03T03:23:12;3.23;;;1.43;;
16878;SDS011;8556;52.218;9.884;2023-04-03T03:25:39;5.23;;;1.90;;
16878;SDS011;8556;52.218;9.884;2023-04-03T03:28:06;4.23;;;2.10;;
16878;SDS011;8556;52.218;9.884;2023-04-03T03:30:33;2.10;;;1.50;;
16878;SDS011;8556;52.218;9.884;2023-04-03T03:33:02;3.27;;;1.60;;
16878;SDS011;8556;52.218;9.884;2023-04-03T03:35:29;5.87;;;3.40;;
16878;SDS011;8556;52.218;9.884;2023-04-03T03:37:56;8.43;;;2.60;;
16878;SDS011;8556;52.218;9.884;2023-04-03T03:40:22;3.03;;;2.03;;
16878;SDS011;8556;52.218;9.884;2023-04-03T03:42:49;3.77;;;1.60;;
16878;SDS011;8556;52.218;9.884;2023-04-03T03:45:16;3.90;;;1.70;;
16878;SDS011;8556;52.218;9.884;2023-04-03T03:47:43;5.13;;;2.17;;
16878;SDS011;8556;52.218;9.884;2023-04-03T03:50:11;4.43;;;1.60;;
16878;SDS011;8556;52.218;9.884;2023-04-03T03:52:38;3.70;;;1.60;;
16878;SDS011;8556;52.218;9.884;2023-04-03T03:55:05;3.80;;;2.00;;
16878;SDS011;8556;52.218;9.884;2023-04-03T03:57:33;3.90;;;1.43;;
16878;SDS011;8556;52.218;9.884;2023-04-03T04:00:00;4.20;;;1.60;;
16878;SDS011;8556;52.218;9.884;2023-04-03T04:02:27;2.40;;;1.73;;
16878;SDS011;8556;52.218;9.884;2023-04-03T04:04:53;5.07;;;1.60;;
16878;SDS011;8556;52.218;9.884;2023-04-03T04:07:22;3.97;;;1.90;;
16878;SDS011;8556;52.218;9.884;2023-04-03T04:09:49;5.47;;;2.23;;
16878;SDS011;8556;52.218;9.884;2023-04-03T04:12:15;4.47;;;1.73;;
16878;SDS011;8556;52.218;9.884;2023-04-03T04:14:42;6.80;;;2.27;;
16878;SDS011;8556;52.218;9.884;2023-04-03T04:17:11;4.13;;;1.70;;
16878;SDS011;8556;52.218;9.884;2023-04-03T04:19:38;10.43;;;2.40;;
16878;SDS011;8556;52.218;9.884;2023-04-03T04:22:05;4.37;;;1.73;;
16878;SDS011;8556;52.218;9.884;2023-04-03T04:24:33;3.90;;;1.90;;
16878;SDS011;8556;52.218;9.884;2023-04-03T04:27:00;3.93;;;2.10;;
16878;SDS011;8556;52.218;9.884;2023-04-03T04:29:27;6.13;;;2.20;;
16878;SDS011;8556;52.218;9.884;2023-04-03T04:31:54;4.93;;;1.90;;
16878;SDS011;8556;52.218;9.884;2023-04-03T04:34:20;2.83;;;1.63;;
16878;SDS011;8556;52.218;9.884;2023-04-03T04:36:47;7.97;;;1.93;;
16878;SDS011;8556;52.218;9.884;2023-04-03T04:39:14;4.67;;;1.70;;
16878;SDS011;8556;52.218;9.884;2023-04-03T04:41:42;4.97;;;1.87;;
16878;SDS011;8556;52.218;9.884;2023-04-03T04:44:09;3.67;;;1.60;;
16878;SDS011;8556;52.218;9.884;2023-04-03T04:46:36;3.43;;;1.60;;
16878;SDS011;8556;52.218;9.884;2023-04-03T04:49:03;4.60;;;1.83;;
16878;SDS011;8556;52.218;9.884;2023-04-03T04:51:30;4.33;;;2.13;;
16878;SDS011;8556;52.218;9.884;2023-04-03T04:53:57;6.73;;;1.73;;
16878;SDS011;8556;52.218;9.884;2023-04-03T04:56:24;4.90;;;2.53;;
16878;SDS011;8556;52.218;9.884;2023-04-03T04:58:52;4.83;;;1.63;;
16878;SDS011;8556;52.218;9.884;2023-04-03T05:01:19;4.23;;;1.90;;
16878;SDS011;8556;52.218;9.884;2023-04-03T05:03:46;4.53;;;1.70;;
16878;SDS011;8556;52.218;9.884;2023-04-03T05:06:13;7.30;;;2.00;;
16878;SDS011;8556;52.218;9.884;2023-04-03T05:08:40;4.47;;;1.70;;
16878;SDS011;8556;52.218;9.884;2023-04-03T05:11:07;6.13;;;1.50;;
16878;SDS011;8556;52.218;9.884;2023-04-03T05:13:34;7.13;;;1.87;;
16878;SDS011;8556;52.218;9.884;2023-04-03T05:16:02;5.60;;;1.83;;
16878;SDS011;8556;52.218;9.884;2023-04-03T05:18:30;4.07;;;1.67;;
16878;SDS011;8556;52.218;9.884;2023-04-03T05:20:56;3.00;;;1.77;;
16878;SDS011;8556;52.218;9.884;2023-04-03T05:23:24;4.23;;;1.57;;
16878;SDS011;8556;52.218;9.884;2023-04-03T05:25:51;9.30;;;2.00;;
16878;SDS011;8556;52.218;9.884;2023-04-03T05:28:18;3.87;;;1.80;;
16878;SDS011;8556;52.218;9.884;2023-04-03T05:30:45;2.63;;;1.50;;
16878;SDS011;8556;52.218;9.884;2023-04-03T05:33:20;4.97;;;1.50;;
16878;SDS011;8556;52.218;9.884;2023-04-03T05:35:47;3.47;;;1.77;;
16878;SDS011;8556;52.218;9.884;2023-04-03T05:38:14;3.87;;;1.73;;
16878;SDS011;8556;52.218;9.884;2023-04-03T05:40:41;2.97;;;1.80;;
16878;SDS011;8556;52.218;9.884;2023-04-03T05:43:08;2.37;;;1.43;;
16878;SDS011;8556;52.218;9.884;2023-04-03T05:45:35;2.67;;;1.57;;
16878;SDS011;8556;52.218;9.884;2023-04-03T05:48:02;6.63;;;1.80;;
16878;SDS011;8556;52.218;9.884;2023-04-03T05:50:30;5.10;;;1.90;;
16878;SDS011;8556;52.218;9.884;2023-04-03T05:52:57;6.23;;;2.00;;
16878;SDS011;8556;52.218;9.884;2023-04-03T05:55:26;4.23;;;1.70;;
16878;SDS011;8556;52.218;9.884;2023-04-03T05:57:53;5.33;;;1.80;;
16878;SDS011;8556;52.218;9.884;2023-04-03T06:00:19;5.87;;;1.80;;
16878;SDS011;8556;52.218;9.884;2023-04-03T06:02:47;3.30;;;1.50;;
16878;SDS011;8556;52.218;9.884;2023-04-03T06:05:14;4.67;;;1.47;;
16878;SDS011;8556;52.218;9.884;2023-04-03T06:07:42;6.77;;;1.87;;
16878;SDS011;8556;52.218;9.884;2023-04-03T06:10:10;4.30;;;1.70;;
16878;SDS011;8556;52.218;9.884;2023-04-03T06:12:38;5.07;;;1.70;;
16878;SDS011;8556;52.218;9.884;2023-04-03T06:15:05;8.17;;;2.00;;
16878;SDS011;8556;52.218;9.884;2023-04-03T06:17:35;4.67;;;2.03;;
16878;SDS011;8556;52.218;9.884;2023-04-03T06:20:02;5.07;;;2.00;;
16878;SDS011;8556;52.218;9.884;2023-04-03T06:22:29;6.20;;;2.20;;
16878;SDS011;8556;52.218;9.884;2023-04-03T06:24:58;4.57;;;2.37;;
16878;SDS011;8556;52.218;9.884;2023-04-03T06:27:24;4.93;;;1.90;;
16878;SDS011;8556;52.218;9.884;2023-04-03T06:29:51;2.73;;;1.57;;
16878;SDS011;8556;52.218;9.884;2023-04-03T06:32:18;2.83;;;1.53;;
16878;SDS011;8556;52.218;9.884;2023-04-03T06:34:45;5.03;;;1.97;;
16878;SDS011;8556;52.218;9.884;2023-04-03T06:37:13;6.83;;;1.70;;
16878;SDS011;8556;52.218;9.884;2023-04-03T06:39:43;8.77;;;1.70;;
16878;SDS011;8556;52.218;9.884;2023-04-03T06:42:11;4.30;;;1.80;;
16878;SDS011;8556;52.218;9.884;2023-04-03T06:44:38;6.03;;;1.97;;
16878;SDS011;8556;52.218;9.884;2023-04-03T06:47:05;3.07;;;1.70;;
16878;SDS011;8556;52.218;9.884;2023-04-03T06:49:33;5.87;;;1.90;;
16878;SDS011;8556;52.218;9.884;2023-04-03T06:52:02;6.17;;;1.87;;
16878;SDS011;8556;52.218;9.884;2023-04-03T06:54:29;3.37;;;1.70;;
16878;SDS011;8556;52.218;9.884;2023-04-03T06:56:56;4.13;;;1.80;;
16878;SDS011;8556;52.218;9.884;2023-04-03T06:59:25;8.83;;;2.20;;
16878;SDS011;8556;52.218;9.884;2023-04-03T07:01:52;6.53;;;2.17;;
16878;SDS011;8556;52.218;9.884;2023-04-03T07:04:18;4.40;;;2.10;;
16878;SDS011;8556;52.218;9.884;2023-04-03T07:06:46;5.50;;;1.90;;
16878;SDS011;8556;52.218;9.884;2023-04-03T07:09:13;4.63;;;2.40;;
16878;SDS011;8556;52.218;9.884;2023-04-03T07:11:40;7.87;;;2.30;;
16878;SDS011;8556;52.218;9.884;2023-04-03T07:14:07;4.93;;;2.13;;
16878;SDS011;8556;52.218;9.884;2023-04-03T07:16:36;6.63;;;2.50;;
16878;SDS011;8556;52.218;9.884;2023-04-03T07:19:02;5.87;;;2.37;;
16878;SDS011;8556;52.218;9.884;2023-04-03T07:21:29;5.03;;;2.10;;
16878;SDS011;8556;52.218;9.884;2023-04-03T07:23:56;6.13;;;2.47;;
16878;SDS011;8556;52.218;9.884;2023-04-03T07:26:23;6.27;;;2.30;;
16878;SDS011;8556;52.218;9.884;2023-04-03T07:28:50;9.63;;;2.23;;
16878;SDS011;8556;52.218;9.884;2023-04-03T07:31:17;4.50;;;1.83;;
16878;SDS011;8556;52.218;9.884;2023-04-03T07:33:45;5.23;;;2.10;;
16878;SDS011;8556;52.218;9.884;2023-04-03T07:36:14;6.93;;;2.43;;
16878;SDS011;8556;52.218;9.884;2023-04-03T07:38:43;5.73;;;2.07;;
16878;SDS011;8556;52.218;9.884;2023-04-03T07:41:11;7.80;;;2.20;;
16878;SDS011;8556;52.218;9.884;2023-04-03T07:43:40;4.80;;;2.20;;
16878;SDS011;8556;52.218;9.884;2023-04-03T07:46:07;6.57;;;2.40;;
16878;SDS011;8556;52.218;9.884;2023-04-03T07:48:34;6.43;;;2.10;;
16878;SDS011;8556;52.218;9.884;2023-04-03T07:51:02;5.60;;;2.50;;
16878;SDS011;8556;52.218;9.884;2023-04-03T07:53:30;4.83;;;2.13;;
16878;SDS011;8556;52.218;9.884;2023-04-03T07:55:58;5.23;;;2.00;;
16878;SDS011;8556;52.218;9.884;2023-04-03T07:58:26;4.57;;;1.90;;
16878;SDS011;8556;52.218;9.884;2023-04-03T08:00:53;6.93;;;3.20;;
16878;SDS011;8556;52.218;9.884;2023-04-03T08:03:20;7.93;;;2.17;;
16878;SDS011;8556;52.218;9.884;2023-04-03T08:05:47;6.70;;;1.80;;
16878;SDS011;8556;52.218;9.884;2023-04-03T08:08:17;5.37;;;1.97;;
16878;SDS011;8556;52.218;9.884;2023-04-03T08:10:47;7.20;;;2.03;;
16878;SDS011;8556;52.218;9.884;2023-04-03T08:13:16;3.60;;;1.50;;
16878;SDS011;8556;52.218;9.884;2023-04-03T08:15:43;3.00;;;2.30;;
16878;SDS011;8556;52.218;9.884;2023-04-03T08:18:10;4.20;;;1.57;;
16878;SDS011;8556;52.218;9.884;2023-04-03T08:20:37;3.93;;;1.40;;
16878;SDS011;8556;52.218;9.884;2023-04-03T08:23:05;4.50;;;1.60;;
16878;SDS011;8556;52.218;9.884;2023-04-03T08:25:34;4.17;;;1.50;;
16878;SDS011;8556;52.218;9.884;2023-04-03T08:28:03;3.93;;;1.67;;
16878;SDS011;8556;52.218;9.884;2023-04-03T08:30:30;5.57;;;1.50;;
16878;SDS011;8556;52.218;9.884;2023-04-03T08:32:57;4.57;;;1.73;;
16878;SDS011;8556;52.218;9.884;2023-04-03T08:35:26;4.83;;;1.60;;
16878;SDS011;8556;52.218;9.884;2023-04-03T08:37:53;5.87;;;1.37;;
16878;SDS011;8556;52.218;9.884;2023-04-03T08:40:20;3.90;;;1.20;;
16878;SDS011;8556;52.218;9.884;2023-04-03T08:43:00;1.47;;;0.80;;
16878;SDS011;8556;52.218;9.884;2023-04-03T08:45:42;2.13;;;0.80;;
16878;SDS011;8556;52.218;9.884;2023-04-03T08:48:13;1.80;;;0.67;;
16878;SDS011;8556;52.218;9.884;2023-04-03T08:50:46;3.93;;;1.53;;
16878;SDS011;8556;52.218;9.884;2023-04-03T08:53:16;2.27;;;1.13;;
16878;SDS011;8556;52.218;9.884;2023-04-03T08:55:47;4.60;;;1.47;;
16878;SDS011;8556;52.218;9.884;2023-04-03T08:58:16;2.27;;;1.30;;
16878;SDS011;8556;52.218;9.884;2023-04-03T09:00:46;3.23;;;1.53;;
16878;SDS011;8556;52.218;9.884;2023-04-03T09:03:16;3.13;;;1.00;;
16878;SDS011;8556;52.218;9.884;2023-04-03T09:05:46;5.40;;;1.33;;
16878;SDS011;8556;52.218;9.884;2023-04-03T09:08:23;2.93;;;1.00;;
16878;SDS011;8556;52.218;9.884;2023-04-03T09:10:58;6.30;;;1.30;;
16878;SDS011;8556;52.218;9.884;2023-04-03T09:13:33;2.57;;;1.20;;
16878;SDS011;8556;52.218;9.884;2023-04-03T09:16:13;3.53;;;1.37;;
16878;SDS011;8556;52.218;9.884;2023-04-03T09:18:48;2.53;;;1.17;;
16878;SDS011;8556;52.218;9.884;2023-04-03T09:21:22;1.63;;;0.70;;
16878;SDS011;8556;52.218;9.884;2023-04-03T09:23:58;5.93;;;1.53;;
16878;SDS011;8556;52.218;9.884;2023-04-03T09:26:29;4.40;;;1.30;;
16878;SDS011;8556;52.218;9.884;2023-04-03T09:29:02;0.67;;;0.53;;
16878;SDS011;8556;52.218;9.884;2023-04-03T09:31:35;3.20;;;1.10;;
16878;SDS011;8556;52.218;9.884;2023-04-03T09:34:06;2.00;;;0.67;;
16878;SDS011;8556;52.218;9.884;2023-04-03T09:36:39;2.13;;;0.87;;
16878;SDS011;8556;52.218;9.884;2023-04-03T09:39:09;2.37;;;0.73;;
16878;SDS011;8556;52.218;9.884;2023-04-03T09:41:37;0.97;;;0.77;;
16878;SDS011;8556;52.218;9.884;2023-04-03T09:44:17;1.90;;;0.80;;
16878;SDS011;8556;52.218;9.884;2023-04-03T09:46:48;5.17;;;1.17;;
16878;SDS011;8556;52.218;9.884;2023-04-03T09:49:15;1.63;;;0.60;;
16878;SDS011;8556;52.218;9.884;2023-04-03T09:51:44;2.80;;;0.90;;
16878;SDS011;8556;52.218;9.884;2023-04-03T09:54:32;2.70;;;1.07;;
16878;SDS011;8556;52.218;9.884;2023-04-03T09:57:04;4.70;;;1.53;;
16878;SDS011;8556;52.218;9.884;2023-04-03T09:59:36;2.10;;;0.90;;
16878;SDS011;8556;52.218;9.884;2023-04-03T10:02:18;3.03;;;0.83;;
16878;SDS011;8556;52.218;9.884;2023-04-03T10:04:53;1.43;;;1.00;;
16878;SDS011;8556;52.218;9.884;2023-04-03T10:07:27;1.93;;;0.53;;
16878;SDS011;8556;52.218;9.884;2023-04-03T10:10:03;2.70;;;0.80;;
16878;SDS011;8556;52.218;9.884;2023-04-03T10:12:43;2.43;;;0.90;;
16878;SDS011;8556;52.218;9.884;2023-04-03T10:15:12;3.13;;;0.93;;
16878;SDS011;8556;52.218;9.884;2023-04-03T10:17:47;1.50;;;0.63;;
16878;SDS011;8556;52.218;9.884;2023-04-03T10:20:30;2.77;;;0.43;;
16878;SDS011;8556;52.218;9.884;2023-04-03T10:23:02;5.10;;;0.97;;
16878;SDS011;8556;52.218;9.884;2023-04-03T10:25:42;4.33;;;1.03;;
16878;SDS011;8556;52.218;9.884;2023-04-03T10:28:16;2.63;;;0.80;;
16878;SDS011;8556;52.218;9.884;2023-04-03T10:30:50;2.27;;;1.10;;
16878;SDS011;8556;52.218;9.884;2023-04-03T10:36:16;1.80;;;0.63;;
16878;SDS011;8556;52.218;9.884;2023-04-03T10:38:53;1.20;;;0.70;;
16878;SDS011;8556;52.218;9.884;2023-04-03T10:41:29;1.53;;;0.70;;
16878;SDS011;8556;52.218;9.884;2023-04-03T10:44:06;2.57;;;0.50;;
16878;SDS011;8556;52.218;9.884;2023-04-03T10:46:43;4.17;;;0.83;;
16878;SDS011;8556;52.218;9.884;2023-04-03T10:49:17;3.77;;;0.80;;
16878;SDS011;8556;52.218;9.884;2023-04-03T10:51:56;2.50;;;0.63;;
16878;SDS011;8556;52.218;9.884;2023-04-03T10:54:30;2.93;;;0.87;;
16878;SDS011;8556;52.218;9.884;2023-04-03T10:57:03;0.83;;;0.77;;
16878;SDS011;8556;52.218;9.884;2023-04-03T10:59:33;4.97;;;1.07;;
16878;SDS011;8556;52.218;9.884;2023-04-03T11:02:06;3.40;;;1.00;;
16878;SDS011;8556;52.218;9.884;2023-04-03T11:04:37;3.93;;;1.00;;
16878;SDS011;8556;52.218;9.884;2023-04-03T11:07:08;2.33;;;0.60;;
16878;SDS011;8556;52.218;9.884;2023-04-03T11:09:39;0.60;;;0.53;;
16878;SDS011;8556;52.218;9.884;2023-04-03T11:12:10;2.00;;;1.00;;
16878;SDS011;8556;52.218;9.884;2023-04-03T11:14:40;3.57;;;1.00;;
16878;SDS011;8556;52.218;9.884;2023-04-03T11:17:15;6.00;;;1.43;;
16878;SDS011;8556;52.218;9.884;2023-04-03T11:19:51;6.77;;;1.20;;
16878;SDS011;8556;52.218;9.884;2023-04-03T11:22:27;2.33;;;1.00;;
16878;SDS011;8556;52.218;9.884;2023-04-03T11:24:57;1.47;;;0.77;;
16878;SDS011;8556;52.218;9.884;2023-04-03T11:27:30;4.00;;;0.93;;
16878;SDS011;8556;52.218;9.884;2023-04-03T11:30:04;1.60;;;0.83;;
16878;SDS011;8556;52.218;9.884;2023-04-03T11:32:43;3.43;;;0.83;;
16878;SDS011;8556;52.218;9.884;2023-04-03T11:35:34;1.67;;;0.60;;
16878;SDS011;8556;52.218;9.884;2023-04-03T11:38:02;3.80;;;0.90;;
16878;SDS011;8556;52.218;9.884;2023-04-03T11:40:32;1.57;;;1.07;;
16878;SDS011;8556;52.218;9.884;2023-04-03T11:43:04;2.17;;;0.50;;
16878;SDS011;8556;52.218;9.884;2023-04-03T11:45:34;1.57;;;0.83;;
16878;SDS011;8556;52.218;9.884;2023-04-03T11:48:05;1.70;;;0.93;;
16878;SDS011;8556;52.218;9.884;2023-04-03T11:50:40;2.10;;;1.17;;
16878;SDS011;8556;52.218;9.884;2023-04-03T11:53:28;3.43;;;1.53;;
16878;SDS011;8556;52.218;9.884;2023-04-03T11:56:01;3.03;;;1.00;;
16878;SDS011;8556;52.218;9.884;2023-04-03T11:58:30;4.07;;;1.00;;
16878;SDS011;8556;52.218;9.884;2023-04-03T12:01:08;1.53;;;1.00;;
16878;SDS011;8556;52.218;9.884;2023-04-03T12:09:35;0.83;;;0.50;;
16878;SDS011;8556;52.218;9.884;2023-04-03T12:12:37;4.13;;;0.90;;
16878;SDS011;8556;52.218;9.884;2023-04-03T12:15:16;2.80;;;0.57;;
16878;SDS011;8556;52.218;9.884;2023-04-03T12:17:49;1.67;;;0.87;;
16878;SDS011;8556;52.218;9.884;2023-04-03T12:23:30;3.37;;;0.90;;
16878;SDS011;8556;52.218;9.884;2023-04-03T12:26:02;2.93;;;0.93;;
16878;SDS011;8556;52.218;9.884;2023-04-03T12:28:38;2.27;;;0.77;;
16878;SDS011;8556;52.218;9.884;2023-04-03T12:31:05;1.07;;;0.60;;
16878;SDS011;8556;52.218;9.884;2023-04-03T12:33:37;1.57;;;0.70;;
16878;SDS011;8556;52.218;9.884;2023-04-03T12:36:23;1.93;;;0.73;;
16878;SDS011;8556;52.218;9.884;2023-04-03T12:39:09;0.90;;;0.70;;
16878;SDS011;8556;52.218;9.884;2023-04-03T12:41:50;1.67;;;0.80;;
16878;SDS011;8556;52.218;9.884;2023-04-03T12:44:31;3.20;;;0.87;;
16878;SDS011;8556;52.218;9.884;2023-04-03T12:47:18;1.13;;;0.70;;
16878;SDS011;8556;52.218;9.884;2023-04-03T12:49:52;0.80;;;0.73;;
16878;SDS011;8556;52.218;9.884;2023-04-03T12:52:24;0.70;;;0.60;;
16878;SDS011;8556;52.218;9.884;2023-04-03T12:54:59;1.30;;;0.60;;
16878;SDS011;8556;52.218;9.884;2023-04-03T12:57:30;3.53;;;1.10;;
16878;SDS011;8556;52.218;9.884;2023-04-03T12:59:58;3.63;;;0.90;;
16878;SDS011;8556;52.218;9.884;2023-04-03T13:02:26;1.23;;;0.70;;
16878;SDS011;8556;52.218;9.884;2023-04-03T13:04:55;4.07;;;0.90;;
16878;SDS011;8556;52.218;9.884;2023-04-03T13:07:25;1.90;;;0.90;;
16878;SDS011;8556;52.218;9.884;2023-04-03T13:12:48;2.43;;;0.93;;
16878;SDS011;8556;52.218;9.884;2023-04-03T13:15:17;4.07;;;1.30;;
16878;SDS011;8556;52.218;9.884;2023-04-03T13:17:45;1.10;;;0.90;;
16878;SDS011;8556;52.218;9.884;2023-04-03T13:20:17;0.93;;;0.80;;
16878;SDS011;8556;52.218;9.884;2023-04-03T13:22:48;2.60;;;0.87;;
16878;SDS011;8556;52.218;9.884;2023-04-03T13:25:18;2.67;;;1.00;;
16878;SDS011;8556;52.218;9.884;2023-04-03T13:27:48;2.87;;;0.87;;
16878;SDS011;8556;52.218;9.884;2023-04-03T13:30:19;3.00;;;0.97;;
16878;SDS011;8556;52.218;9.884;2023-04-03T13:32:49;3.33;;;1.10;;
16878;SDS011;8556;52.218;9.884;2023-04-03T13:35:27;2.50;;;0.80;;
16878;SDS011;8556;52.218;9.884;2023-04-03T13:37:56;1.93;;;1.20;;
16878;SDS011;8556;52.218;9.884;2023-04-03T13:40:25;1.80;;;1.00;;
16878;SDS011;8556;52.218;9.884;2023-04-03T13:43:00;3.17;;;1.03;;
16878;SDS011;8556;52.218;9.884;2023-04-03T13:45:29;1.87;;;0.87;;
16878;SDS011;8556;52.218;9.884;2023-04-03T13:48:08;2.50;;;0.83;;
16878;SDS011;8556;52.218;9.884;2023-04-03T13:50:58;2.13;;;0.80;;
16878;SDS011;8556;52.218;9.884;2023-04-03T13:53:26;2.90;;;1.17;;
16878;SDS011;8556;52.218;9.884;2023-04-03T13:55:59;1.63;;;0.97;;
16878;SDS011;8556;52.218;9.884;2023-04-03T13:58:35;1.70;;;0.90;;
16878;SDS011;8556;52.218;9.884;2023-04-03T14:01:09;2.40;;;1.00;;
16878;SDS011;8556;52.218;9.884;2023-04-03T14:03:40;1.53;;;1.20;;
16878;SDS011;8556;52.218;9.884;2023-04-03T14:06:10;2.67;;;1.07;;
16878;SDS011;8556;52.218;9.884;2023-04-03T14:08:39;1.83;;;1.10;;
16878;SDS011;8556;52.218;9.884;2023-04-03T14:11:08;2.20;;;1.03;;
16878;SDS011;8556;52.218;9.884;2023-04-03T14:13:39;1.80;;;1.13;;
16878;SDS011;8556;52.218;9.884;2023-04-03T14:16:06;1.23;;;1.00;;
16878;SDS011;8556;52.218;9.884;2023-04-03T14:18:34;2.33;;;0.83;;
16878;SDS011;8556;52.218;9.884;2023-04-03T14:21:01;1.30;;;0.73;;
16878;SDS011;8556;52.218;9.884;2023-04-03T14:23:28;4.53;;;1.00;;
16878;SDS011;8556;52.218;9.884;2023-04-03T14:25:55;2.03;;;1.07;;
16878;SDS011;8556;52.218;9.884;2023-04-03T14:28:22;4.10;;;1.10;;
16878;SDS011;8556;52.218;9.884;2023-04-03T14:30:51;2.80;;;0.97;;
16878;SDS011;8556;52.218;9.884;2023-04-03T14:33:19;3.17;;;1.10;;
16878;SDS011;8556;52.218;9.884;2023-04-03T14:35:48;1.00;;;0.90;;
16878;SDS011;8556;52.218;9.884;2023-04-03T14:38:20;0.70;;;0.70;;
16878;SDS011;8556;52.218;9.884;2023-04-03T14:40:49;1.13;;;0.90;;
16878;SDS011;8556;52.218;9.884;2023-04-03T14:43:16;2.20;;;0.77;;
16878;SDS011;8556;52.218;9.884;2023-04-03T14:45:44;1.83;;;0.70;;
16878;SDS011;8556;52.218;9.884;2023-04-03T14:48:15;3.97;;;1.20;;
16878;SDS011;8556;52.218;9.884;2023-04-03T14:50:45;1.20;;;1.10;;
16878;SDS011;8556;52.218;9.884;2023-04-03T14:53:13;2.63;;;1.07;;
16878;SDS011;8556;52.218;9.884;2023-04-03T14:55:41;1.43;;;0.73;;
16878;SDS011;8556;52.218;9.884;2023-04-03T14:58:11;1.93;;;1.03;;
16878;SDS011;8556;52.218;9.884;2023-04-03T15:00:39;4.67;;;1.17;;
16878;SDS011;8556;52.218;9.884;2023-04-03T15:03:08;1.53;;;0.93;;
16878;SDS011;8556;52.218;9.884;2023-04-03T15:05:41;1.90;;;1.23;;
16878;SDS011;8556;52.218;9.884;2023-04-03T15:08:11;1.20;;;0.73;;
16878;SDS011;8556;52.218;9.884;2023-04-03T15:10:45;0.90;;;0.60;;
16878;SDS011;8556;52.218;9.884;2023-04-03T15:13:12;3.77;;;1.10;;
16878;SDS011;8556;52.218;9.884;2023-04-03T15:15:39;1.90;;;0.80;;
16878;SDS011;8556;52.218;9.884;2023-04-03T15:18:09;4.30;;;1.30;;
16878;SDS011;8556;52.218;9.884;2023-04-03T15:20:41;2.13;;;1.00;;
16878;SDS011;8556;52.218;9.884;2023-04-03T15:23:09;1.80;;;0.97;;
16878;SDS011;8556;52.218;9.884;2023-04-03T15:25:37;2.03;;;0.60;;
16878;SDS011;8556;52.218;9.884;2023-04-03T15:28:05;0.80;;;0.67;;
16878;SDS011;8556;52.218;9.884;2023-04-03T15:30:34;3.40;;;0.77;;
16878;SDS011;8556;52.218;9.884;2023-04-03T15:33:04;1.73;;;1.10;;